Time;durP1;ratioP1;P1;durP2;ratioP2;P2;SDS_P1;SDS_P2;PMS_P1;PMS_P2;Temp;Humidity;BMP_temperature;BMP_pressure;BME280_temperature;BME280_humidity;BME280_pressure;Samples;Min_cycle;Max_cycle;Signal;HPM_P1;HPM_P2
2022/07/17 00:01:32;;;;;;;7.40;2.40;;;;;;;17.08;61.35;102595.19;5116435;27;20047;-50
2022/07/17 00:04:00;;;;;;;10.52;3.05;;;;;;;17.17;60.82;102598.25;5100451;27;20039;-49
2022/07/17 00:06:27;;;;;;;10.68;3.00;;;;;;;17.11;61.12;102599.34;5130078;27;20046;-49
2022/07/17 00:08:55;;;;;;;9.75;2.75;;;;;;;17.05;60.87;102595.72;5124262;27;20042;-49
2022/07/17 00:11:22;;;;;;;7.82;2.67;;;;;;;17.00;61.20;102596.53;5133962;27;20050;-49
2022/07/17 00:13:50;;;;;;;7.13;2.67;;;;;;;16.98;61.27;102595.97;5117285;27;20063;-49
2022/07/17 00:16:18;;;;;;;8.95;2.58;;;;;;;16.90;61.78;102604.72;5136046;27;20055;-49
2022/07/17 00:18:45;;;;;;;9.95;2.92;;;;;;;16.73;62.18;102591.13;5100060;27;20054;-54
2022/07/17 00:21:13;;;;;;;10.32;2.65;;;;;;;16.56;63.36;102587.72;5110926;28;20051;-51
2022/07/17 00:23:41;;;;;;;12.43;2.88;;;;;;;16.52;63.52;102598.41;5130615;27;20031;-50
2022/07/17 00:26:09;;;;;;;7.75;2.47;;;;;;;16.54;63.47;102601.72;5116599;27;20046;-48
2022/07/17 00:28:36;;;;;;;8.27;2.53;;;;;;;16.57;63.08;102603.97;5116858;27;20062;-49
2022/07/17 00:31:05;;;;;;;11.73;2.83;;;;;;;16.54;63.39;102585.22;5130880;27;20065;-49
2022/07/17 00:33:33;;;;;;;11.23;3.08;;;;;;;16.46;63.75;102593.97;5131546;27;20096;-49
2022/07/17 00:36:01;;;;;;;7.78;2.75;;;;;;;16.48;63.65;102591.78;5125176;27;20046;-50
2022/07/17 00:38:29;;;;;;;5.85;2.60;;;;;;;16.50;63.41;102589.59;5128236;27;20105;-50
2022/07/17 00:40:58;;;;;;;9.05;2.97;;;;;;;16.49;63.75;102585.19;5135762;27;20046;-48
2022/07/17 00:43:26;;;;;;;8.98;2.83;;;;;;;16.49;63.74;102590.69;5134669;27;20406;-50
2022/07/17 00:45:59;;;;;;;7.43;2.95;;;;;;;16.56;63.37;102591.28;5121222;27;20043;-49
2022/07/17 00:48:27;;;;;;;5.68;2.97;;;;;;;16.68;63.04;102590.25;5114662;27;20055;-49
2022/07/17 00:50:55;;;;;;;9.65;3.17;;;;;;;16.70;62.74;102593.59;5135056;27;20500;-50
2022/07/17 00:53:23;;;;;;;10.88;3.25;;;;;;;16.65;62.91;102599.06;5134701;27;20035;-53
2022/07/17 00:55:51;;;;;;;8.60;3.13;;;;;;;16.53;63.53;102600.06;5115616;27;20045;-51
2022/07/17 00:58:21;;;;;;;10.68;3.30;;;;;;;16.51;63.94;102595.94;5117121;27;20039;-50
2022/07/17 01:00:51;;;;;;;7.75;2.75;;;;;;;16.59;63.74;102598.19;5134572;27;20051;-50
2022/07/17 01:03:21;;;;;;;10.32;2.90;;;;;;;16.63;63.49;102588.31;5134031;27;20071;-51
2022/07/17 01:05:49;;;;;;;9.38;3.15;;;;;;;16.60;63.10;102589.66;5134797;27;20043;-50
2022/07/17 01:08:16;;;;;;;10.10;3.05;;;;;;;16.57;63.44;102590.22;5119721;27;20042;-48
2022/07/17 01:10:44;;;;;;;8.32;2.70;;;;;;;16.59;63.40;102588.00;5101207;27;20044;-50
2022/07/17 01:13:12;;;;;;;8.95;2.95;;;;;;;16.51;63.50;102584.94;5116090;27;20114;-51
2022/07/17 01:15:41;;;;;;;8.10;3.00;;;;;;;16.46;63.98;102576.66;5124116;27;20039;-51
2022/07/17 01:18:13;;;;;;;9.05;2.65;;;;;;;16.47;63.79;102576.34;5130112;27;20109;-51
2022/07/17 01:20:44;;;;;;;6.53;2.58;;;;;;;16.49;64.10;102576.09;5102332;27;20042;-49
2022/07/17 01:23:12;;;;;;;9.43;2.70;;;;;;;16.49;63.45;102574.19;5130786;27;20138;-53
2022/07/17 01:25:41;;;;;;;7.85;2.85;;;;;;;16.50;63.67;102572.25;5129801;27;20043;-52
2022/07/17 01:28:09;;;;;;;8.88;2.60;;;;;;;16.48;63.33;102575.28;5112217;27;20035;-50
2022/07/17 01:30:36;;;;;;;9.40;2.80;;;;;;;16.48;63.88;102580.78;5109177;28;20036;-51
2022/07/17 01:33:04;;;;;;;15.95;3.15;;;;;;;16.48;63.51;102583.53;5126747;27;20043;-48
2022/07/17 01:35:32;;;;;;;6.25;2.80;;;;;;;16.41;63.76;102585.69;5112080;28;20141;-50
2022/07/17 01:38:00;;;;;;;8.75;2.80;;;;;;;16.46;63.70;102587.66;5127031;27;20047;-50
2022/07/17 01:40:28;;;;;;;8.00;2.47;;;;;;;16.47;63.68;102584.63;5134618;27;20043;-51
2022/07/17 01:42:55;;;;;;;7.80;2.55;;;;;;;16.47;63.40;102586.53;5134502;27;20042;-53
2022/07/17 01:45:23;;;;;;;8.25;2.47;;;;;;;16.43;63.75;102578.00;5103594;27;20039;-51
2022/07/17 01:47:50;;;;;;;8.55;2.75;;;;;;;16.38;63.61;102580.72;5124050;27;20092;-49
2022/07/17 01:50:18;;;;;;;11.52;3.08;;;;;;;16.32;64.02;102582.59;5128856;27;20049;-48
2022/07/17 01:52:46;;;;;;;10.65;3.35;;;;;;;16.21;64.42;102577.28;5115827;27;20031;-49
2022/07/17 01:55:15;;;;;;;6.55;2.67;;;;;;;16.06;64.73;102575.22;5133682;27;20118;-49
2022/07/17 01:57:43;;;;;;;7.90;2.58;;;;;;;16.03;65.07;102573.84;5132605;27;20039;-50
2022/07/17 02:00:16;;;;;;;9.35;2.85;;;;;;;15.96;65.54;102574.03;5132328;27;20050;-48
2022/07/17 02:02:44;;;;;;;6.78;2.72;;;;;;;15.99;65.42;102572.69;5134148;27;20051;-50
2022/07/17 02:05:12;;;;;;;5.97;2.50;;;;;;;15.95;65.83;102571.56;5133866;28;20051;-51
2022/07/17 02:07:39;;;;;;;9.70;2.75;;;;;;;15.92;65.80;102574.81;5113702;27;20035;-49
2022/07/17 02:10:13;;;;;;;7.95;2.47;;;;;;;15.93;65.84;102587.50;5123463;28;20043;-50
2022/07/17 02:12:43;;;;;;;9.68;2.55;;;;;;;15.92;65.89;102583.06;5134177;28;20051;-47
2022/07/17 02:15:11;;;;;;;12.68;3.00;;;;;;;15.96;65.71;102578.72;5093588;28;20486;-50
2022/07/17 02:17:40;;;;;;;9.70;2.65;;;;;;;15.92;65.65;102577.56;5098691;28;20047;-51
2022/07/17 02:20:12;;;;;;;8.55;2.72;;;;;;;15.80;65.99;102575.00;5127415;28;20039;-52
2022/07/17 02:22:39;;;;;;;11.82;2.72;;;;;;;15.76;66.73;102580.19;5115825;28;20046;-50
2022/07/17 02:25:08;;;;;;;7.15;2.70;;;;;;;15.77;66.64;102592.81;5132711;28;20031;-54
2022/07/17 02:27:36;;;;;;;11.57;2.67;;;;;;;15.80;66.75;102587.91;5115817;28;20043;-49
2022/07/17 02:30:15;;;;;;;10.07;3.00;;;;;;;15.86;66.06;102573.13;5101392;28;20042;-48
2022/07/17 02:32:44;;;;;;;6.88;2.60;;;;;;;15.92;66.11;102580.31;5115459;28;20051;-48
2022/07/17 02:35:12;;;;;;;9.18;2.92;;;;;;;15.89;65.50;102584.44;5113727;28;20047;-49
2022/07/17 02:37:42;;;;;;;7.97;2.85;;;;;;;15.81;65.82;102582.16;5115939;28;20050;-47
2022/07/17 02:40:10;;;;;;;7.20;2.50;;;;;;;15.78;66.21;102577.19;5114718;28;20031;-48
2022/07/17 02:42:38;;;;;;;8.43;2.65;;;;;;;15.76;66.18;102582.94;5133894;28;20043;-50
2022/07/17 02:45:06;;;;;;;6.63;3.00;;;;;;;15.75;66.23;102586.78;5083165;28;20031;-49
2022/07/17 02:47:35;;;;;;;8.43;2.67;;;;;;;15.76;66.21;102580.19;5121191;28;20042;-48
2022/07/17 02:50:05;;;;;;;7.20;2.30;;;;;;;15.82;66.00;102572.00;5103247;28;20035;-48
2022/07/17 02:52:33;;;;;;;6.28;2.38;;;;;;;15.83;65.57;102570.91;5132791;28;20100;-49
2022/07/17 02:55:02;;;;;;;10.48;2.88;;;;;;;15.79;65.84;102572.53;5133679;28;20051;-47
2022/07/17 02:57:30;;;;;;;8.82;3.00;;;;;;;15.71;66.07;102582.06;5133892;28;20401;-50
2022/07/17 02:59:57;;;;;;;8.85;3.45;;;;;;;15.61;66.33;102582.75;5130110;28;20122;-48
2022/07/17 03:02:25;;;;;;;10.90;3.80;;;;;;;15.59;66.91;102573.94;5128456;28;20513;-49
2022/07/17 03:04:52;;;;;;;7.15;3.22;;;;;;;15.57;66.84;102576.13;5124076;28;20039;-48
2022/07/17 03:07:20;;;;;;;8.18;3.50;;;;;;;15.58;67.00;102580.50;5127377;28;20038;-48
2022/07/17 03:09:48;;;;;;;9.02;3.78;;;;;;;15.61;67.09;102579.16;5119256;28;20042;-49
2022/07/17 03:12:15;;;;;;;9.35;3.60;;;;;;;15.62;66.84;102587.16;5108925;28;20058;-50
2022/07/17 03:14:43;;;;;;;10.55;3.83;;;;;;;15.57;67.25;102592.59;5134347;28;20089;-54
2022/07/17 03:17:11;;;;;;;8.52;3.50;;;;;;;15.59;67.37;102595.94;5133666;28;20047;-54
2022/07/17 03:19:38;;;;;;;8.43;2.80;;;;;;;15.62;66.79;102595.41;5133752;28;20046;-53
2022/07/17 03:22:06;;;;;;;8.07;2.75;;;;;;;15.59;67.16;102590.44;5131125;28;20505;-51
2022/07/17 03:24:34;;;;;;;8.50;3.00;;;;;;;15.51;67.14;102590.88;5132196;28;20035;-55
2022/07/17 03:27:02;;;;;;;8.05;2.78;;;;;;;15.47;67.68;102598.00;5135304;27;20032;-53
2022/07/17 03:29:29;;;;;;;6.43;2.80;;;;;;;15.46;67.57;102591.66;5136331;27;20047;-49
2022/07/17 03:31:57;;;;;;;7.47;2.65;;;;;;;15.52;67.75;102595.31;5134841;27;20035;-46
2022/07/17 03:34:25;;;;;;;10.68;3.10;;;;;;;15.52;67.19;102601.63;5132262;27;20069;-49
2022/07/17 03:36:52;;;;;;;6.40;2.42;;;;;;;15.44;67.58;102593.00;5135731;27;20512;-49
2022/07/17 03:39:20;;;;;;;11.68;2.63;;;;;;;15.32;68.09;102595.88;5136808;27;20034;-49
2022/07/17 03:41:48;;;;;;;8.38;3.00;;;;;;;15.18;68.84;102595.44;5135072;27;20058;-50
2022/07/17 03:44:15;;;;;;;5.68;2.65;;;;;;;15.19;68.74;102585.28;5113191;28;20482;-49
2022/07/17 03:46:43;;;;;;;7.43;2.80;;;;;;;15.17;68.82;102582.78;5114392;27;20039;-49
2022/07/17 03:49:11;;;;;;;8.05;3.05;;;;;;;15.12;69.19;102585.47;5126159;27;20134;-49
2022/07/17 03:51:38;;;;;;;7.15;3.17;;;;;;;15.06;69.43;102581.84;5136516;27;20130;-48
2022/07/17 03:54:06;;;;;;;8.50;2.78;;;;;;;15.02;69.55;102579.88;5134583;27;20046;-48
2022/07/17 03:56:34;;;;;;;6.53;2.80;;;;;;;15.05;69.81;102579.34;5117106;27;20042;-51
2022/07/17 03:59:01;;;;;;;5.97;3.00;;;;;;;15.14;69.44;102586.06;5128709;27;20031;-50
2022/07/17 04:01:29;;;;;;;5.97;2.95;;;;;;;15.23;69.29;102587.28;5116962;27;20039;-49
2022/07/17 04:03:57;;;;;;;8.00;2.78;;;;;;;15.28;68.91;102589.25;5127543;27;20039;-48
2022/07/17 04:06:25;;;;;;;7.95;3.15;;;;;;;15.23;69.04;102603.75;5136286;27;20047;-48
2022/07/17 04:08:52;;;;;;;10.07;3.00;;;;;;;15.22;69.01;102599.31;5135690;27;20039;-51
2022/07/17 04:11:20;;;;;;;11.07;3.72;;;;;;;15.26;68.83;102603.22;5117740;27;20430;-53
2022/07/17 04:13:48;;;;;;;12.82;3.70;;;;;;;15.24;69.07;102610.06;5131328;27;20035;-52
2022/07/17 04:16:16;;;;;;;7.60;2.80;;;;;;;15.26;68.88;102613.41;5136103;27;20126;-48
2022/07/17 04:18:44;;;;;;;8.25;2.95;;;;;;;15.26;68.93;102622.47;5115806;27;20497;-50
2022/07/17 04:21:13;;;;;;;5.50;2.70;;;;;;;15.10;69.33;102612.34;5136066;27;20074;-47
2022/07/17 04:23:40;;;;;;;11.77;3.22;;;;;;;15.01;69.88;102606.50;5126680;27;20043;-47
2022/07/17 04:26:08;;;;;;;6.90;2.80;;;;;;;14.99;69.76;102607.84;5132452;27;20041;-48
2022/07/17 04:28:39;;;;;;;7.70;2.78;;;;;;;15.03;70.09;102603.47;5117518;27;20114;-48
2022/07/17 04:31:07;;;;;;;11.50;3.30;;;;;;;15.10;69.90;102609.59;5117985;27;20512;-50
2022/07/17 04:33:35;;;;;;;7.32;2.80;;;;;;;15.17;69.75;102604.75;5134112;27;20028;-45
2022/07/17 04:36:03;;;;;;;8.07;3.50;;;;;;;15.17;69.42;102610.25;5131161;27;20097;-46
2022/07/17 04:38:31;;;;;;;7.65;3.20;;;;;;;15.15;69.79;102606.94;5131549;27;20041;-46
2022/07/17 04:40:59;;;;;;;7.97;2.92;;;;;;;15.10;69.75;102609.59;5117734;27;20481;-49
2022/07/17 04:43:26;;;;;;;8.13;2.70;;;;;;;15.11;70.12;102611.28;5126494;27;20046;-49
2022/07/17 04:45:54;;;;;;;8.73;3.05;;;;;;;15.12;70.26;102619.25;5133553;27;20031;-49
2022/07/17 04:48:21;;;;;;;11.60;3.78;;;;;;;14.95;70.75;102617.66;5126526;27;20039;-49
2022/07/17 04:50:49;;;;;;;6.30;2.85;;;;;;;14.90;71.48;102627.47;5135218;27;20039;-51
2022/07/17 04:53:17;;;;;;;7.50;3.22;;;;;;;15.00;70.90;102614.97;5126733;27;20039;-51
2022/07/17 04:55:50;;;;;;;9.95;3.20;;;;;;;15.01;70.80;102622.09;5133758;27;20431;-50
2022/07/17 04:58:18;;;;;;;7.45;3.25;;;;;;;15.00;70.88;102629.53;5130843;27;20032;-50
2022/07/17 05:00:46;;;;;;;9.88;3.13;;;;;;;15.02;71.00;102626.53;5132682;27;20104;-51
2022/07/17 05:03:14;;;;;;;7.13;2.88;;;;;;;15.03;71.01;102622.69;5134353;27;20108;-48
2022/07/17 05:05:42;;;;;;;10.27;3.50;;;;;;;15.02;70.74;102624.63;5124219;27;20093;-49
2022/07/17 05:08:09;;;;;;;7.40;3.30;;;;;;;14.97;71.37;102623.72;5098406;27;20039;-51
2022/07/17 05:10:37;;;;;;;6.93;2.80;;;;;;;15.00;71.50;102620.47;5134407;27;20040;-51
2022/07/17 05:13:05;;;;;;;7.60;3.13;;;;;;;14.99;71.33;102614.16;5134192;27;20051;-52
2022/07/17 05:15:32;;;;;;;10.07;3.35;;;;;;;15.01;71.65;102616.63;5133013;27;20039;-50
2022/07/17 05:18:07;;;;;;;6.88;2.80;;;;;;;14.95;71.98;102629.47;5120686;27;20063;-50
2022/07/17 05:20:34;;;;;;;11.50;2.90;;;;;;;14.99;71.93;102629.78;5134636;27;20050;-50
2022/07/17 05:23:02;;;;;;;9.73;3.17;;;;;;;15.04;72.14;102621.63;5098625;27;20046;-51
2022/07/17 05:25:30;;;;;;;7.47;2.78;;;;;;;15.10;71.93;102620.59;5126696;27;20041;-52
2022/07/17 05:27:58;;;;;;;7.55;3.00;;;;;;;15.10;71.64;102623.34;5128879;27;20042;-49
2022/07/17 05:30:25;;;;;;;9.85;3.00;;;;;;;15.08;72.06;102617.25;5134116;27;20417;-50
2022/07/17 05:32:53;;;;;;;8.35;2.95;;;;;;;15.03;72.15;102625.44;5134312;27;20031;-50
2022/07/17 05:35:21;;;;;;;7.25;2.70;;;;;;;15.08;72.30;102618.13;5133434;27;20397;-55
2022/07/17 05:37:48;;;;;;;4.93;2.40;;;;;;;15.15;71.59;102612.41;5128532;27;20038;-53
2022/07/17 05:40:16;;;;;;;8.18;3.00;;;;;;;15.23;70.55;102611.16;5114816;27;20113;-53
2022/07/17 05:42:44;;;;;;;8.30;2.85;;;;;;;15.33;70.09;102619.53;5128828;27;20046;-47
2022/07/17 05:45:11;;;;;;;6.20;2.25;;;;;;;15.41;69.55;102620.97;5111866;27;20047;-51
2022/07/17 05:47:39;;;;;;;6.40;2.58;;;;;;;15.47;69.92;102612.56;5123491;27;20043;-49
2022/07/17 05:50:07;;;;;;;6.75;2.38;;;;;;;15.58;69.67;102608.00;5133561;27;20039;-50
2022/07/17 05:52:34;;;;;;;6.65;2.55;;;;;;;15.71;69.30;102610.38;5115551;27;20528;-49
2022/07/17 05:55:03;;;;;;;5.95;2.45;;;;;;;15.86;68.80;102611.63;5132269;27;20050;-48
2022/07/17 05:57:31;;;;;;;7.38;2.50;;;;;;;15.96;68.03;102606.22;5119596;27;20038;-49
2022/07/17 05:59:59;;;;;;;9.52;2.47;;;;;;;16.02;67.66;102607.94;5127002;27;20051;-49
2022/07/17 06:02:26;;;;;;;11.15;2.97;;;;;;;16.05;67.18;102610.16;5133894;27;20062;-51
2022/07/17 06:04:54;;;;;;;8.23;2.50;;;;;;;16.07;66.92;102605.22;5114209;27;20038;-50
2022/07/17 06:07:21;;;;;;;5.97;2.15;;;;;;;16.11;66.50;102606.34;5126137;27;20119;-48
2022/07/17 06:09:49;;;;;;;8.93;2.75;;;;;;;16.17;66.05;102599.81;5134023;27;20050;-50
2022/07/17 06:12:16;;;;;;;8.18;2.83;;;;;;;16.19;65.67;102605.88;5133653;27;20054;-48
2022/07/17 06:14:44;;;;;;;7.85;2.80;;;;;;;16.19;65.58;102607.81;5126442;28;20035;-49
2022/07/17 06:17:12;;;;;;;6.93;2.50;;;;;;;16.22;65.66;102609.19;5126632;28;20047;-48
2022/07/17 06:19:40;;;;;;;5.88;2.50;;;;;;;16.22;65.17;102598.19;5134165;28;20040;-52
2022/07/17 06:22:08;;;;;;;6.78;2.40;;;;;;;16.23;65.83;102600.66;5132680;28;20040;-52
2022/07/17 06:24:36;;;;;;;7.00;2.67;;;;;;;16.28;65.55;102594.38;5113990;28;20043;-48
2022/07/17 06:27:03;;;;;;;9.95;2.78;;;;;;;16.30;65.55;102594.94;5113426;28;20047;-48
2022/07/17 06:29:31;;;;;;;8.55;2.42;;;;;;;16.32;65.54;102593.59;5128843;28;20507;-49
2022/07/17 06:31:58;;;;;;;8.27;2.92;;;;;;;16.34;65.36;102607.91;5133288;28;20041;-52
2022/07/17 06:34:26;;;;;;;8.80;2.55;;;;;;;16.34;65.33;102618.91;5126368;28;20105;-48
2022/07/17 06:36:54;;;;;;;7.05;2.50;;;;;;;16.35;65.93;102626.06;5112455;28;20045;-48
2022/07/17 06:39:22;;;;;;;9.25;2.63;;;;;;;16.36;65.51;102621.41;5113794;28;20043;-50
2022/07/17 06:41:50;;;;;;;7.78;2.72;;;;;;;16.38;65.67;102619.25;5133522;28;20410;-49
2022/07/17 06:44:17;;;;;;;8.32;2.60;;;;;;;16.39;65.02;102624.47;5107922;28;20042;-54
2022/07/17 06:46:45;;;;;;;12.02;2.83;;;;;;;16.43;64.88;102621.16;5091338;28;20046;-52
2022/07/17 06:49:13;;;;;;;6.60;2.40;;;;;;;16.43;64.96;102629.44;5129534;28;20043;-50
2022/07/17 06:51:41;;;;;;;7.45;2.50;;;;;;;16.42;64.66;102627.78;5114744;28;20035;-48
2022/07/17 06:54:10;;;;;;;9.05;3.03;;;;;;;16.46;65.21;102632.50;5133230;28;20481;-47
2022/07/17 06:56:38;;;;;;;8.13;2.53;;;;;;;16.51;65.04;102640.78;5096922;28;20042;-49
2022/07/17 06:59:08;;;;;;;9.45;2.92;;;;;;;16.55;64.86;102647.44;5115371;28;20039;-50
2022/07/17 07:01:37;;;;;;;11.82;3.28;;;;;;;16.53;64.40;102655.13;5122636;27;20545;-50
2022/07/17 07:04:08;;;;;;;7.53;2.58;;;;;;;16.55;64.28;102657.63;5095870;28;20036;-48
2022/07/17 07:06:36;;;;;;;12.00;3.00;;;;;;;16.56;63.98;102654.56;5095306;28;20036;-50
2022/07/17 07:09:04;;;;;;;12.00;3.67;;;;;;;16.57;63.99;102660.91;5083692;28;20498;-49
2022/07/17 07:11:31;;;;;;;5.93;2.50;;;;;;;16.57;64.12;102653.50;5095577;28;20123;-54
2022/07/17 07:13:59;;;;;;;9.85;3.05;;;;;;;16.60;64.03;102663.16;5095069;28;20490;-54
2022/07/17 07:16:27;;;;;;;6.55;2.58;;;;;;;16.63;63.83;102665.38;5090880;28;20070;-54
2022/07/17 07:18:55;;;;;;;9.65;3.00;;;;;;;16.67;63.14;102668.41;5091366;28;20037;-48
2022/07/17 07:21:24;;;;;;;8.55;2.90;;;;;;;16.69;63.19;102658.81;5080363;28;20612;-53
2022/07/17 07:23:53;;;;;;;6.28;2.55;;;;;;;16.73;62.90;102659.94;5094395;28;20094;-54
2022/07/17 07:26:22;;;;;;;10.30;2.78;;;;;;;16.79;62.49;102661.66;5085775;28;20048;-48
2022/07/17 07:28:50;;;;;;;28.50;6.47;;;;;;;16.85;62.84;102654.25;5094094;28;20047;-51
2022/07/17 07:31:17;;;;;;;14.18;3.60;;;;;;;16.89;62.04;102652.66;5080902;28;20048;-51
2022/07/17 07:33:45;;;;;;;15.43;3.92;;;;;;;16.92;62.37;102648.53;5095920;28;20044;-50
2022/07/17 07:36:13;;;;;;;8.45;3.00;;;;;;;16.98;61.82;102656.56;5090938;28;20036;-50
2022/07/17 07:38:45;;;;;;;9.43;3.22;;;;;;;17.03;60.90;102653.84;5091544;28;20070;-50
2022/07/17 07:41:13;;;;;;;9.38;3.13;;;;;;;17.02;60.33;102651.34;5094473;28;20055;-51
2022/07/17 07:43:41;;;;;;;10.30;3.08;;;;;;;17.01;61.04;102650.50;5093466;28;20071;-48
2022/07/17 07:46:09;;;;;;;11.35;3.17;;;;;;;17.03;61.03;102653.84;5098649;28;20032;-48
2022/07/17 07:48:37;;;;;;;10.55;3.50;;;;;;;17.08;61.23;102649.44;5091921;28;20070;-50
2022/07/17 07:51:04;;;;;;;10.75;3.60;;;;;;;17.09;61.11;102649.16;5095194;28;20542;-48
2022/07/17 07:53:32;;;;;;;8.40;3.17;;;;;;;17.14;60.61;102660.22;5091319;28;20051;-50
2022/07/17 07:56:00;;;;;;;16.05;4.30;;;;;;;17.16;60.87;102657.19;5090805;28;20073;-49
2022/07/17 07:58:27;;;;;;;10.90;2.80;;;;;;;17.18;60.33;102660.53;5085362;28;20502;-49
2022/07/17 08:00:55;;;;;;;9.10;3.17;;;;;;;17.21;60.77;102665.50;5093288;28;20036;-49
2022/07/17 08:03:23;;;;;;;9.20;3.00;;;;;;;17.23;60.78;102669.63;5124503;27;20043;-50
2022/07/17 08:05:52;;;;;;;10.93;3.30;;;;;;;17.25;60.31;102669.38;5131077;27;20511;-50
2022/07/17 08:08:19;;;;;;;10.18;2.97;;;;;;;17.25;60.27;102669.38;5118146;27;20043;-49
2022/07/17 08:10:47;;;;;;;8.02;3.13;;;;;;;17.28;60.27;102665.25;5117594;27;20039;-49
2022/07/17 08:13:16;;;;;;;10.82;3.33;;;;;;;17.30;59.21;102666.63;5135241;27;20082;-50
2022/07/17 08:15:44;;;;;;;10.13;3.00;;;;;;;17.32;58.87;102666.34;5115231;27;21569;-49
2022/07/17 08:18:12;;;;;;;12.43;3.20;;;;;;;17.36;59.38;102673.81;5135914;27;20396;-50
2022/07/17 08:20:40;;;;;;;9.68;3.08;;;;;;;17.38;59.94;102676.31;5117819;27;20027;-53
2022/07/17 08:23:08;;;;;;;10.68;3.30;;;;;;;17.40;59.95;102676.88;5135974;27;20035;-50
2022/07/17 08:25:36;;;;;;;11.50;3.10;;;;;;;17.42;60.41;102672.75;5119274;27;20491;-49
2022/07/17 08:28:05;;;;;;;7.80;2.75;;;;;;;17.46;60.11;102673.03;5131823;27;20043;-51
2022/07/17 08:30:34;;;;;;;10.15;2.80;;;;;;;17.46;60.04;102662.84;5117428;27;20096;-49
2022/07/17 08:33:04;;;;;;;8.65;2.53;;;;;;;17.51;60.00;102666.72;5135685;27;20134;-50
2022/07/17 08:35:32;;;;;;;12.95;3.00;;;;;;;17.55;59.55;102668.66;5129252;27;20042;-50
2022/07/17 08:38:02;;;;;;;8.38;2.53;;;;;;;17.63;58.47;102667.31;5129332;27;20035;-50
2022/07/17 08:40:35;;;;;;;6.50;2.40;;;;;;;17.67;57.47;102660.97;5135379;27;20043;-50
2022/07/17 08:43:04;;;;;;;6.32;2.70;;;;;;;17.68;56.50;102664.59;5135685;27;20413;-49
2022/07/17 08:45:32;;;;;;;7.57;2.53;;;;;;;17.68;56.97;102657.13;5134768;27;20108;-49
2022/07/17 08:48:01;;;;;;;5.95;2.55;;;;;;;17.70;57.31;102662.34;5132173;27;20047;-51
2022/07/17 08:50:32;;;;;;;9.82;2.55;;;;;;;17.73;57.35;102656.31;5135346;27;20039;-47
2022/07/17 08:53:01;;;;;;;7.97;2.63;;;;;;;17.79;57.36;102657.97;5135256;27;20092;-47
2022/07/17 08:55:29;;;;;;;7.28;2.67;;;;;;;17.90;57.05;102663.56;5131272;27;20485;-50
2022/07/17 08:57:57;;;;;;;9.50;2.60;;;;;;;17.99;56.62;102659.16;5135053;27;20042;-52
2022/07/17 09:00:26;;;;;;;13.52;4.05;;;;;;;18.11;56.32;102656.97;5116779;27;20397;-48
2022/07/17 09:03:03;;;;;;;7.43;2.53;;;;;;;18.12;55.92;102660.56;5116552;27;20047;-49
2022/07/17 09:05:33;;;;;;;10.25;3.28;;;;;;;18.10;56.05;102661.66;5134108;27;20047;-52
2022/07/17 09:08:03;;;;;;;11.02;2.67;;;;;;;18.09;56.20;102659.19;5107649;28;20046;-51
2022/07/17 09:10:45;;;;;;;8.73;2.72;;;;;;;18.09;55.06;102657.25;5130298;27;20143;-50
2022/07/17 09:13:29;;;;;;;8.55;2.90;;;;;;;18.10;55.33;102656.13;5135055;27;20435;-49
2022/07/17 09:16:05;;;;;;;7.13;2.58;;;;;;;18.11;55.32;102662.47;5125249;27;20034;-50
2022/07/17 09:18:47;;;;;;;8.30;2.63;;;;;;;18.13;54.45;102660.28;5126503;27;20062;-50
2022/07/17 09:21:20;;;;;;;9.98;3.42;;;;;;;18.18;54.59;102654.75;5120532;27;20054;-52
2022/07/17 09:23:59;;;;;;;6.88;2.65;;;;;;;18.20;54.75;102655.31;5114877;28;20096;-50
2022/07/17 09:26:27;;;;;;;6.13;2.60;;;;;;;18.33;52.46;102658.63;5113225;27;20035;-52
2022/07/17 09:28:55;;;;;;;5.07;2.03;;;;;;;18.37;52.97;102655.03;5124992;27;20031;-52
2022/07/17 09:31:31;;;;;;;8.50;2.72;;;;;;;18.39;52.96;102652.03;5111704;27;20054;-48
2022/07/17 09:34:00;;;;;;;7.05;2.58;;;;;;;18.43;52.66;102655.91;5133973;27;20035;-51
2022/07/17 09:36:27;;;;;;;8.98;2.83;;;;;;;18.45;52.13;102645.41;5132818;27;20418;-50
2022/07/17 09:38:57;;;;;;;8.63;2.47;;;;;;;18.45;51.84;102656.44;5134406;27;20160;-49
2022/07/17 09:41:26;;;;;;;8.70;2.60;;;;;;;18.46;51.33;102641.53;5116138;27;20383;-49
2022/07/17 09:43:57;;;;;;;6.93;2.60;;;;;;;18.50;51.81;102635.19;5115663;27;20392;-52
2022/07/17 09:46:33;;;;;;;11.35;2.90;;;;;;;18.58;52.55;102639.31;5116552;27;20439;-54
2022/07/17 09:49:07;;;;;;;8.38;3.03;;;;;;;18.69;52.72;102645.66;5112745;28;20452;-48
2022/07/17 09:51:39;;;;;;;10.65;2.97;;;;;;;18.74;51.61;102632.66;5127830;27;20043;-49
2022/07/17 09:54:10;;;;;;;10.27;2.78;;;;;;;18.73;51.04;102636.50;5113730;27;20134;-49
2022/07/17 09:56:39;;;;;;;8.23;2.65;;;;;;;18.72;51.92;102634.88;5109598;27;20047;-51
2022/07/17 09:59:10;;;;;;;9.65;2.50;;;;;;;18.72;52.42;102640.41;5133152;27;20057;-52
2022/07/17 10:01:41;;;;;;;9.63;3.10;;;;;;;18.75;51.71;102639.00;5134035;27;20039;-49
2022/07/17 10:04:11;;;;;;;6.72;2.50;;;;;;;18.81;50.48;102637.09;5131946;27;20070;-49
2022/07/17 10:06:38;;;;;;;7.05;2.60;;;;;;;18.94;51.70;102642.03;5133959;27;20126;-50
2022/07/17 10:09:06;;;;;;;8.93;2.67;;;;;;;19.00;51.04;102640.94;5133901;27;20107;-52
2022/07/17 10:11:37;;;;;;;9.40;2.50;;;;;;;19.05;50.80;102648.34;5133978;27;20066;-48
2022/07/17 10:14:14;;;;;;;7.10;2.22;;;;;;;19.09;50.34;102644.75;5115351;28;20043;-49
2022/07/17 10:16:44;;;;;;;10.02;2.67;;;;;;;19.13;50.76;102645.84;5133814;28;20105;-53
2022/07/17 10:19:19;;;;;;;8.05;3.00;;;;;;;19.15;50.84;102638.09;5115672;28;20054;-52
2022/07/17 10:22:02;;;;;;;6.90;2.50;;;;;;;19.22;50.36;102635.06;5115831;28;20043;-51
2022/07/17 10:24:30;;;;;;;6.85;2.63;;;;;;;19.36;49.12;102633.34;5115059;28;20481;-47
2022/07/17 10:26:58;;;;;;;7.78;2.25;;;;;;;19.51;47.83;102639.91;5115598;28;20121;-47
2022/07/17 10:29:29;;;;;;;6.72;2.03;;;;;;;19.55;47.88;102638.19;5116323;28;20043;-48
2022/07/17 10:31:57;;;;;;;6.20;2.15;;;;;;;19.52;47.97;102639.59;5133671;28;20035;-52
2022/07/17 10:35:02;;;;;;;5.85;2.20;;;;;;;19.50;48.71;102644.56;5106972;28;20099;-50
2022/07/17 10:37:49;;;;;;;8.10;2.72;;;;;;;19.54;48.78;102637.38;5095990;27;20047;-53
2022/07/17 10:40:32;;;;;;;9.43;2.38;;;;;;;19.62;48.36;102640.66;5137875;27;20357;-46
2022/07/17 10:43:01;;;;;;;7.72;2.40;;;;;;;19.68;47.84;102640.38;5083940;27;20521;-51
2022/07/17 10:45:35;;;;;;;9.23;2.30;;;;;;;19.71;47.23;102627.91;5137213;27;20092;-49
2022/07/17 10:48:10;;;;;;;7.78;2.50;;;;;;;19.71;46.30;102633.44;5137908;27;20043;-52
2022/07/17 10:50:43;;;;;;;8.90;2.63;;;;;;;19.70;46.36;102635.41;5137662;27;20041;-49
2022/07/17 10:53:18;;;;;;;7.82;2.45;;;;;;;19.75;45.40;102637.31;5106110;27;20091;-49
2022/07/17 10:55:53;;;;;;;6.03;2.30;;;;;;;19.86;45.21;102632.53;5124182;27;20088;-49
2022/07/17 10:58:24;;;;;;;9.00;2.40;;;;;;;19.98;43.59;102631.03;5105459;28;20035;-49
2022/07/17 11:01:02;;;;;;;9.52;2.55;;;;;;;20.03;43.97;102638.47;5127306;27;20035;-50
2022/07/17 11:03:32;;;;;;;7.72;2.28;;;;;;;20.03;44.37;102637.66;5137651;27;20051;-53
2022/07/17 11:06:27;;;;;;;7.20;2.33;;;;;;;20.02;44.61;102645.16;5106386;27;20046;-52
2022/07/17 11:09:08;;;;;;;5.82;2.05;;;;;;;20.07;44.09;102635.97;5136864;27;20043;-49
2022/07/17 11:11:41;;;;;;;11.13;2.63;;;;;;;20.09;44.27;102633.75;5119360;27;20039;-47
2022/07/17 11:14:11;;;;;;;5.88;2.20;;;;;;;20.12;44.22;102634.00;5137232;27;20503;-50
2022/07/17 11:16:48;;;;;;;6.80;2.30;;;;;;;20.30;45.32;102639.94;5126908;27;20115;-55
2022/07/17 11:19:26;;;;;;;7.00;2.33;;;;;;;20.38;43.77;102625.47;5137050;27;20039;-52
2022/07/17 11:21:55;;;;;;;9.27;2.67;;;;;;;20.39;43.77;102627.94;5105862;27;20039;-55
2022/07/17 11:24:23;;;;;;;6.65;2.42;;;;;;;20.39;44.24;102624.34;5119210;27;20043;-56
2022/07/17 11:26:51;;;;;;;7.53;2.47;;;;;;;20.39;43.84;102622.41;5088122;27;20118;-51
2022/07/17 11:29:20;;;;;;;5.70;2.30;;;;;;;20.38;44.12;102622.72;5129412;27;20043;-54
2022/07/17 11:31:54;;;;;;;6.50;2.13;;;;;;;20.50;43.78;102623.16;5123593;27;20062;-51
2022/07/17 11:34:25;;;;;;;6.75;2.13;;;;;;;20.63;43.54;102621.66;5132858;27;20062;-53